sensor_id;sensor_type;location;lat;lon;timestamp;P1;durP1;ratioP1;P2;durP2;ratioP2
10537;SDS011;5317;49.048;8.468;2023-10-08T00:00:23;4.63;;;3.53;;
10537;SDS011;5317;49.048;8.468;2023-10-08T00:03:10;4.27;;;3.30;;
10537;SDS011;5317;49.048;8.468;2023-10-08T00:05:38;5.97;;;4.10;;
10537;SDS011;5317;49.048;8.468;2023-10-08T00:08:06;7.17;;;3.60;;
10537;SDS011;5317;49.048;8.468;2023-10-08T00:10:36;6.73;;;3.90;;
10537;SDS011;5317;49.048;8.468;2023-10-08T00:13:07;5.53;;;3.63;;
10537;SDS011;5317;49.048;8.468;2023-10-08T00:15:34;5.70;;;3.80;;
10537;SDS011;5317;49.048;8.468;2023-10-08T00:18:02;5.70;;;3.43;;
10537;SDS011;5317;49.048;8.468;2023-10-08T00:20:32;5.10;;;3.53;;
10537;SDS011;5317;49.048;8.468;2023-10-08T00:23:07;5.80;;;3.90;;
10537;SDS011;5317;49.048;8.468;2023-10-08T00:25:34;6.90;;;3.97;;
10537;SDS011;5317;49.048;8.468;2023-10-08T00:28:05;5.43;;;3.53;;
10537;SDS011;5317;49.048;8.468;2023-10-08T00:30:38;6.50;;;3.90;;
10537;SDS011;5317;49.048;8.468;2023-10-08T00:33:06;5.50;;;3.60;;
10537;SDS011;5317;49.048;8.468;2023-10-08T00:35:39;6.77;;;3.53;;
10537;SDS011;5317;49.048;8.468;2023-10-08T00:38:07;8.23;;;3.63;;
10537;SDS011;5317;49.048;8.468;2023-10-08T00:40:40;7.13;;;3.50;;
10537;SDS011;5317;49.048;8.468;2023-10-08T00:43:12;7.50;;;3.80;;
10537;SDS011;5317;49.048;8.468;2023-10-08T00:45:56;4.93;;;3.77;;
10537;SDS011;5317;49.048;8.468;2023-10-08T00:48:24;5.03;;;3.37;;
10537;SDS011;5317;49.048;8.468;2023-10-08T00:50:54;6.33;;;3.67;;
10537;SDS011;5317;49.048;8.468;2023-10-08T00:53:34;5.27;;;3.70;;
10537;SDS011;5317;49.048;8.468;2023-10-08T00:56:05;5.33;;;3.30;;
10537;SDS011;5317;49.048;8.468;2023-10-08T00:58:39;4.93;;;3.40;;
10537;SDS011;5317;49.048;8.468;2023-10-08T01:01:07;5.17;;;3.20;;
10537;SDS011;5317;49.048;8.468;2023-10-08T01:03:36;5.60;;;3.53;;
10537;SDS011;5317;49.048;8.468;2023-10-08T01:06:09;5.80;;;3.20;;
10537;SDS011;5317;49.048;8.468;2023-10-08T01:08:36;5.43;;;3.60;;
10537;SDS011;5317;49.048;8.468;2023-10-08T01:11:16;6.80;;;3.70;;
10537;SDS011;5317;49.048;8.468;2023-10-08T01:13:46;5.63;;;3.83;;
10537;SDS011;5317;49.048;8.468;2023-10-08T01:16:14;6.00;;;3.77;;
10537;SDS011;5317;49.048;8.468;2023-10-08T01:18:42;5.30;;;3.73;;
10537;SDS011;5317;49.048;8.468;2023-10-08T01:21:15;4.73;;;3.40;;
10537;SDS011;5317;49.048;8.468;2023-10-08T01:24:00;5.37;;;3.53;;
10537;SDS011;5317;49.048;8.468;2023-10-08T01:26:31;6.77;;;3.37;;
10537;SDS011;5317;49.048;8.468;2023-10-08T01:29:04;5.10;;;3.33;;
10537;SDS011;5317;49.048;8.468;2023-10-08T01:31:32;5.00;;;3.60;;
10537;SDS011;5317;49.048;8.468;2023-10-08T01:33:59;6.03;;;3.57;;
10537;SDS011;5317;49.048;8.468;2023-10-08T01:36:29;5.20;;;3.50;;
10537;SDS011;5317;49.048;8.468;2023-10-08T01:38:57;6.03;;;3.70;;
10537;SDS011;5317;49.048;8.468;2023-10-08T01:41:27;5.50;;;3.73;;
10537;SDS011;5317;49.048;8.468;2023-10-08T01:43:55;5.13;;;3.17;;
10537;SDS011;5317;49.048;8.468;2023-10-08T01:46:24;5.77;;;3.40;;
10537;SDS011;5317;49.048;8.468;2023-10-08T01:48:52;6.93;;;3.43;;
10537;SDS011;5317;49.048;8.468;2023-10-08T01:51:26;5.37;;;3.53;;
10537;SDS011;5317;49.048;8.468;2023-10-08T01:54:02;4.93;;;3.27;;
10537;SDS011;5317;49.048;8.468;2023-10-08T01:56:39;4.50;;;3.27;;
10537;SDS011;5317;49.048;8.468;2023-10-08T01:59:07;5.87;;;3.17;;
10537;SDS011;5317;49.048;8.468;2023-10-08T02:01:35;5.47;;;3.20;;
10537;SDS011;5317;49.048;8.468;2023-10-08T02:04:03;5.37;;;3.30;;
10537;SDS011;5317;49.048;8.468;2023-10-08T02:06:32;3.80;;;2.83;;
10537;SDS011;5317;49.048;8.468;2023-10-08T02:08:59;4.27;;;3.23;;
10537;SDS011;5317;49.048;8.468;2023-10-08T02:11:31;4.63;;;3.57;;
10537;SDS011;5317;49.048;8.468;2023-10-08T02:13:59;4.10;;;3.23;;
10537;SDS011;5317;49.048;8.468;2023-10-08T02:16:27;4.67;;;3.20;;
10537;SDS011;5317;49.048;8.468;2023-10-08T02:18:53;4.73;;;3.20;;
10537;SDS011;5317;49.048;8.468;2023-10-08T02:21:21;5.60;;;3.50;;
10537;SDS011;5317;49.048;8.468;2023-10-08T02:23:51;5.90;;;3.40;;
10537;SDS011;5317;49.048;8.468;2023-10-08T02:26:18;5.80;;;3.13;;
10537;SDS011;5317;49.048;8.468;2023-10-08T02:28:45;3.27;;;2.80;;
10537;SDS011;5317;49.048;8.468;2023-10-08T02:31:13;5.43;;;3.87;;
10537;SDS011;5317;49.048;8.468;2023-10-08T02:33:40;4.67;;;3.40;;
10537;SDS011;5317;49.048;8.468;2023-10-08T02:36:07;4.90;;;3.30;;
10537;SDS011;5317;49.048;8.468;2023-10-08T02:38:35;5.50;;;3.53;;
10537;SDS011;5317;49.048;8.468;2023-10-08T02:41:03;5.90;;;3.63;;
10537;SDS011;5317;49.048;8.468;2023-10-08T02:43:32;5.43;;;3.70;;
10537;SDS011;5317;49.048;8.468;2023-10-08T02:46:01;4.00;;;3.10;;
10537;SDS011;5317;49.048;8.468;2023-10-08T02:48:33;6.20;;;3.87;;
10537;SDS011;5317;49.048;8.468;2023-10-08T02:51:01;4.57;;;3.20;;
10537;SDS011;5317;49.048;8.468;2023-10-08T02:53:36;5.37;;;3.60;;
10537;SDS011;5317;49.048;8.468;2023-10-08T02:56:06;4.40;;;3.20;;
10537;SDS011;5317;49.048;8.468;2023-10-08T02:58:37;5.30;;;3.40;;
10537;SDS011;5317;49.048;8.468;2023-10-08T03:01:05;6.33;;;3.80;;
10537;SDS011;5317;49.048;8.468;2023-10-08T03:03:38;5.13;;;3.70;;
10537;SDS011;5317;49.048;8.468;2023-10-08T03:06:07;7.63;;;3.90;;
10537;SDS011;5317;49.048;8.468;2023-10-08T03:08:36;5.70;;;3.87;;
10537;SDS011;5317;49.048;8.468;2023-10-08T03:11:07;5.27;;;3.20;;
10537;SDS011;5317;49.048;8.468;2023-10-08T03:13:41;5.57;;;3.77;;
10537;SDS011;5317;49.048;8.468;2023-10-08T03:16:16;5.63;;;3.23;;
10537;SDS011;5317;49.048;8.468;2023-10-08T03:18:48;5.30;;;3.60;;
10537;SDS011;5317;49.048;8.468;2023-10-08T03:21:16;4.37;;;3.20;;
10537;SDS011;5317;49.048;8.468;2023-10-08T03:23:47;6.83;;;3.80;;
10537;SDS011;5317;49.048;8.468;2023-10-08T03:26:16;5.37;;;3.53;;
10537;SDS011;5317;49.048;8.468;2023-10-08T03:29:02;6.90;;;3.10;;
10537;SDS011;5317;49.048;8.468;2023-10-08T03:31:33;4.80;;;3.43;;
10537;SDS011;5317;49.048;8.468;2023-10-08T03:34:16;5.13;;;3.53;;
10537;SDS011;5317;49.048;8.468;2023-10-08T03:36:45;4.87;;;3.30;;
10537;SDS011;5317;49.048;8.468;2023-10-08T03:39:14;6.87;;;3.80;;
10537;SDS011;5317;49.048;8.468;2023-10-08T03:41:44;5.97;;;3.50;;
10537;SDS011;5317;49.048;8.468;2023-10-08T03:44:24;5.70;;;3.80;;
10537;SDS011;5317;49.048;8.468;2023-10-08T03:46:54;5.00;;;3.63;;
10537;SDS011;5317;49.048;8.468;2023-10-08T03:49:23;4.70;;;3.20;;
10537;SDS011;5317;49.048;8.468;2023-10-08T03:51:56;5.30;;;3.40;;
10537;SDS011;5317;49.048;8.468;2023-10-08T03:54:23;4.40;;;3.47;;
10537;SDS011;5317;49.048;8.468;2023-10-08T03:56:59;4.27;;;3.20;;
10537;SDS011;5317;49.048;8.468;2023-10-08T03:59:26;6.13;;;3.37;;
10537;SDS011;5317;49.048;8.468;2023-10-08T04:01:56;5.03;;;3.47;;
10537;SDS011;5317;49.048;8.468;2023-10-08T04:04:35;4.73;;;3.27;;
10537;SDS011;5317;49.048;8.468;2023-10-08T04:07:17;5.87;;;3.50;;
10537;SDS011;5317;49.048;8.468;2023-10-08T04:10:04;5.17;;;3.70;;
10537;SDS011;5317;49.048;8.468;2023-10-08T04:12:59;6.57;;;3.70;;
10537;SDS011;5317;49.048;8.468;2023-10-08T04:15:27;5.00;;;3.30;;
10537;SDS011;5317;49.048;8.468;2023-10-08T04:17:54;6.07;;;3.80;;
10537;SDS011;5317;49.048;8.468;2023-10-08T04:20:23;5.83;;;3.53;;
10537;SDS011;5317;49.048;8.468;2023-10-08T04:23:03;5.20;;;3.13;;
10537;SDS011;5317;49.048;8.468;2023-10-08T04:25:38;5.33;;;3.60;;
10537;SDS011;5317;49.048;8.468;2023-10-08T04:28:06;5.00;;;3.23;;
10537;SDS011;5317;49.048;8.468;2023-10-08T04:30:38;4.87;;;3.40;;
10537;SDS011;5317;49.048;8.468;2023-10-08T04:33:07;4.93;;;3.20;;
10537;SDS011;5317;49.048;8.468;2023-10-08T04:35:39;5.03;;;3.37;;
10537;SDS011;5317;49.048;8.468;2023-10-08T04:38:13;4.67;;;3.40;;
10537;SDS011;5317;49.048;8.468;2023-10-08T04:40:43;5.53;;;3.43;;
10537;SDS011;5317;49.048;8.468;2023-10-08T04:43:14;6.50;;;3.30;;
10537;SDS011;5317;49.048;8.468;2023-10-08T04:45:47;5.80;;;3.37;;
10537;SDS011;5317;49.048;8.468;2023-10-08T04:48:14;5.37;;;3.20;;
10537;SDS011;5317;49.048;8.468;2023-10-08T04:50:46;4.47;;;3.33;;
10537;SDS011;5317;49.048;8.468;2023-10-08T04:53:23;4.40;;;3.10;;
10537;SDS011;5317;49.048;8.468;2023-10-08T04:55:56;4.77;;;3.23;;
10537;SDS011;5317;49.048;8.468;2023-10-08T04:58:27;6.03;;;3.70;;
10537;SDS011;5317;49.048;8.468;2023-10-08T05:00:58;5.77;;;3.13;;
10537;SDS011;5317;49.048;8.468;2023-10-08T05:03:42;5.23;;;3.33;;
10537;SDS011;5317;49.048;8.468;2023-10-08T05:06:22;5.10;;;3.40;;
10537;SDS011;5317;49.048;8.468;2023-10-08T05:09:15;3.80;;;3.03;;
10537;SDS011;5317;49.048;8.468;2023-10-08T05:11:48;4.50;;;3.13;;
10537;SDS011;5317;49.048;8.468;2023-10-08T05:14:30;4.77;;;3.23;;
10537;SDS011;5317;49.048;8.468;2023-10-08T05:17:04;4.50;;;3.10;;
10537;SDS011;5317;49.048;8.468;2023-10-08T05:19:34;4.70;;;3.40;;
10537;SDS011;5317;49.048;8.468;2023-10-08T05:22:22;7.17;;;3.30;;
10537;SDS011;5317;49.048;8.468;2023-10-08T05:25:10;3.90;;;3.00;;
10537;SDS011;5317;49.048;8.468;2023-10-08T05:27:51;5.67;;;3.07;;
10537;SDS011;5317;49.048;8.468;2023-10-08T05:30:34;4.50;;;3.23;;
10537;SDS011;5317;49.048;8.468;2023-10-08T05:33:05;5.97;;;3.40;;
10537;SDS011;5317;49.048;8.468;2023-10-08T05:35:38;4.67;;;3.10;;
10537;SDS011;5317;49.048;8.468;2023-10-08T05:38:16;5.83;;;3.17;;
10537;SDS011;5317;49.048;8.468;2023-10-08T05:41:03;4.97;;;3.33;;
10537;SDS011;5317;49.048;8.468;2023-10-08T05:43:31;4.70;;;3.10;;
10537;SDS011;5317;49.048;8.468;2023-10-08T05:46:16;6.43;;;3.40;;
10537;SDS011;5317;49.048;8.468;2023-10-08T05:49:04;4.57;;;3.37;;
10537;SDS011;5317;49.048;8.468;2023-10-08T05:51:51;4.40;;;3.17;;
10537;SDS011;5317;49.048;8.468;2023-10-08T05:54:40;5.13;;;3.27;;
10537;SDS011;5317;49.048;8.468;2023-10-08T05:57:22;6.13;;;3.50;;
10537;SDS011;5317;49.048;8.468;2023-10-08T06:00:04;4.60;;;3.60;;
10537;SDS011;5317;49.048;8.468;2023-10-08T06:02:55;5.07;;;3.23;;
10537;SDS011;5317;49.048;8.468;2023-10-08T06:05:36;4.17;;;3.10;;
10537;SDS011;5317;49.048;8.468;2023-10-08T06:08:10;5.70;;;3.53;;
10537;SDS011;5317;49.048;8.468;2023-10-08T06:10:39;5.70;;;3.40;;
10537;SDS011;5317;49.048;8.468;2023-10-08T06:13:21;4.47;;;3.17;;
10537;SDS011;5317;49.048;8.468;2023-10-08T06:15:55;6.50;;;3.47;;
10537;SDS011;5317;49.048;8.468;2023-10-08T06:18:31;5.53;;;3.60;;
10537;SDS011;5317;49.048;8.468;2023-10-08T06:21:00;6.60;;;3.80;;
10537;SDS011;5317;49.048;8.468;2023-10-08T06:23:33;4.70;;;3.70;;
10537;SDS011;5317;49.048;8.468;2023-10-08T06:26:03;7.13;;;3.57;;
10537;SDS011;5317;49.048;8.468;2023-10-08T06:28:39;4.97;;;3.33;;
10537;SDS011;5317;49.048;8.468;2023-10-08T06:31:07;5.23;;;3.67;;
10537;SDS011;5317;49.048;8.468;2023-10-08T06:33:36;4.63;;;3.27;;
10537;SDS011;5317;49.048;8.468;2023-10-08T06:36:05;6.50;;;3.80;;
10537;SDS011;5317;49.048;8.468;2023-10-08T06:38:39;5.07;;;3.50;;
10537;SDS011;5317;49.048;8.468;2023-10-08T06:41:11;4.80;;;3.57;;
10537;SDS011;5317;49.048;8.468;2023-10-08T06:43:43;5.03;;;3.57;;
10537;SDS011;5317;49.048;8.468;2023-10-08T06:46:13;5.10;;;3.40;;
10537;SDS011;5317;49.048;8.468;2023-10-08T06:48:40;8.57;;;4.20;;
10537;SDS011;5317;49.048;8.468;2023-10-08T06:51:08;5.90;;;3.77;;
10537;SDS011;5317;49.048;8.468;2023-10-08T06:53:39;4.67;;;3.43;;
10537;SDS011;5317;49.048;8.468;2023-10-08T06:56:06;4.80;;;3.40;;
10537;SDS011;5317;49.048;8.468;2023-10-08T06:58:37;5.40;;;3.73;;
10537;SDS011;5317;49.048;8.468;2023-10-08T07:01:07;4.90;;;3.33;;
10537;SDS011;5317;49.048;8.468;2023-10-08T07:03:35;5.97;;;3.80;;
10537;SDS011;5317;49.048;8.468;2023-10-08T07:06:03;5.30;;;4.20;;
10537;SDS011;5317;49.048;8.468;2023-10-08T07:08:42;5.23;;;3.47;;
10537;SDS011;5317;49.048;8.468;2023-10-08T07:11:11;7.17;;;3.60;;
10537;SDS011;5317;49.048;8.468;2023-10-08T07:13:40;6.63;;;4.33;;
10537;SDS011;5317;49.048;8.468;2023-10-08T07:16:07;4.53;;;3.83;;
10537;SDS011;5317;49.048;8.468;2023-10-08T07:18:37;7.63;;;3.93;;
10537;SDS011;5317;49.048;8.468;2023-10-08T07:21:04;6.17;;;3.40;;
10537;SDS011;5317;49.048;8.468;2023-10-08T07:23:37;6.40;;;4.33;;
10537;SDS011;5317;49.048;8.468;2023-10-08T07:26:21;7.83;;;4.10;;
10537;SDS011;5317;49.048;8.468;2023-10-08T07:28:50;6.43;;;3.90;;
10537;SDS011;5317;49.048;8.468;2023-10-08T07:31:20;5.47;;;3.47;;
10537;SDS011;5317;49.048;8.468;2023-10-08T07:33:49;6.17;;;3.90;;
10537;SDS011;5317;49.048;8.468;2023-10-08T07:36:21;6.83;;;4.60;;
10537;SDS011;5317;49.048;8.468;2023-10-08T07:38:49;5.87;;;3.97;;
10537;SDS011;5317;49.048;8.468;2023-10-08T07:41:17;6.57;;;4.07;;
10537;SDS011;5317;49.048;8.468;2023-10-08T07:43:45;6.27;;;4.03;;
10537;SDS011;5317;49.048;8.468;2023-10-08T07:46:19;7.63;;;4.50;;
10537;SDS011;5317;49.048;8.468;2023-10-08T07:48:46;9.43;;;4.60;;
10537;SDS011;5317;49.048;8.468;2023-10-08T07:51:15;5.57;;;3.97;;
10537;SDS011;5317;49.048;8.468;2023-10-08T07:53:42;7.70;;;4.40;;
10537;SDS011;5317;49.048;8.468;2023-10-08T07:56:10;5.67;;;4.23;;
10537;SDS011;5317;49.048;8.468;2023-10-08T07:58:37;6.47;;;4.10;;
10537;SDS011;5317;49.048;8.468;2023-10-08T08:01:05;8.20;;;4.33;;
10537;SDS011;5317;49.048;8.468;2023-10-08T08:03:33;5.77;;;4.17;;
10537;SDS011;5317;49.048;8.468;2023-10-08T08:06:02;6.83;;;3.80;;
10537;SDS011;5317;49.048;8.468;2023-10-08T08:08:31;5.83;;;4.10;;
10537;SDS011;5317;49.048;8.468;2023-10-08T08:10:58;6.00;;;4.10;;
10537;SDS011;5317;49.048;8.468;2023-10-08T08:13:32;5.67;;;4.07;;
10537;SDS011;5317;49.048;8.468;2023-10-08T08:15:59;6.47;;;3.97;;
10537;SDS011;5317;49.048;8.468;2023-10-08T08:18:36;6.27;;;3.70;;
10537;SDS011;5317;49.048;8.468;2023-10-08T08:21:03;6.80;;;4.20;;
10537;SDS011;5317;49.048;8.468;2023-10-08T08:23:46;6.50;;;4.40;;
10537;SDS011;5317;49.048;8.468;2023-10-08T08:26:16;5.77;;;3.97;;
10537;SDS011;5317;49.048;8.468;2023-10-08T08:28:53;4.90;;;3.70;;
10537;SDS011;5317;49.048;8.468;2023-10-08T08:31:25;7.20;;;4.17;;
10537;SDS011;5317;49.048;8.468;2023-10-08T08:33:53;5.97;;;3.83;;
10537;SDS011;5317;49.048;8.468;2023-10-08T08:36:25;5.73;;;4.10;;
10537;SDS011;5317;49.048;8.468;2023-10-08T08:38:53;7.37;;;4.00;;
10537;SDS011;5317;49.048;8.468;2023-10-08T08:41:20;7.37;;;4.00;;
10537;SDS011;5317;49.048;8.468;2023-10-08T08:43:49;6.37;;;4.10;;
10537;SDS011;5317;49.048;8.468;2023-10-08T08:46:22;6.83;;;4.30;;
10537;SDS011;5317;49.048;8.468;2023-10-08T08:48:55;7.87;;;4.33;;
10537;SDS011;5317;49.048;8.468;2023-10-08T08:51:26;6.57;;;4.63;;
10537;SDS011;5317;49.048;8.468;2023-10-08T08:53:55;6.53;;;4.10;;
10537;SDS011;5317;49.048;8.468;2023-10-08T08:56:25;5.17;;;3.73;;
10537;SDS011;5317;49.048;8.468;2023-10-08T08:58:54;6.40;;;3.73;;
10537;SDS011;5317;49.048;8.468;2023-10-08T09:01:24;5.47;;;3.67;;
10537;SDS011;5317;49.048;8.468;2023-10-08T09:03:51;6.23;;;4.10;;
10537;SDS011;5317;49.048;8.468;2023-10-08T09:06:19;5.43;;;3.90;;
10537;SDS011;5317;49.048;8.468;2023-10-08T09:08:46;5.17;;;3.70;;
10537;SDS011;5317;49.048;8.468;2023-10-08T09:11:15;6.03;;;4.43;;
10537;SDS011;5317;49.048;8.468;2023-10-08T09:13:42;5.90;;;3.70;;
10537;SDS011;5317;49.048;8.468;2023-10-08T09:16:11;4.97;;;3.63;;
10537;SDS011;5317;49.048;8.468;2023-10-08T09:18:40;4.07;;;3.50;;
10537;SDS011;5317;49.048;8.468;2023-10-08T09:21:09;7.33;;;3.80;;
10537;SDS011;5317;49.048;8.468;2023-10-08T09:23:41;6.50;;;3.73;;
10537;SDS011;5317;49.048;8.468;2023-10-08T09:26:12;5.30;;;3.90;;
10537;SDS011;5317;49.048;8.468;2023-10-08T09:28:40;4.97;;;3.43;;
10537;SDS011;5317;49.048;8.468;2023-10-08T09:31:11;4.93;;;3.60;;
10537;SDS011;5317;49.048;8.468;2023-10-08T09:33:39;5.83;;;3.80;;
10537;SDS011;5317;49.048;8.468;2023-10-08T09:36:07;5.43;;;3.53;;
10537;SDS011;5317;49.048;8.468;2023-10-08T09:38:44;5.83;;;3.30;;
10537;SDS011;5317;49.048;8.468;2023-10-08T09:41:13;5.73;;;3.53;;
10537;SDS011;5317;49.048;8.468;2023-10-08T09:43:41;5.40;;;3.83;;
10537;SDS011;5317;49.048;8.468;2023-10-08T09:46:13;7.67;;;3.77;;
10537;SDS011;5317;49.048;8.468;2023-10-08T09:48:48;5.87;;;3.63;;
10537;SDS011;5317;49.048;8.468;2023-10-08T09:51:18;5.90;;;3.73;;
10537;SDS011;5317;49.048;8.468;2023-10-08T09:53:52;4.97;;;3.30;;
10537;SDS011;5317;49.048;8.468;2023-10-08T09:56:31;5.03;;;3.50;;
10537;SDS011;5317;49.048;8.468;2023-10-08T09:58:59;5.67;;;3.57;;
10537;SDS011;5317;49.048;8.468;2023-10-08T10:01:27;4.57;;;3.67;;
10537;SDS011;5317;49.048;8.468;2023-10-08T10:03:57;5.57;;;3.70;;
10537;SDS011;5317;49.048;8.468;2023-10-08T10:06:25;6.50;;;3.50;;
10537;SDS011;5317;49.048;8.468;2023-10-08T10:08:56;4.60;;;3.20;;
10537;SDS011;5317;49.048;8.468;2023-10-08T10:11:25;4.97;;;3.43;;
10537;SDS011;5317;49.048;8.468;2023-10-08T10:13:57;7.30;;;3.60;;
10537;SDS011;5317;49.048;8.468;2023-10-08T10:16:26;6.43;;;3.83;;
10537;SDS011;5317;49.048;8.468;2023-10-08T10:18:55;5.50;;;3.37;;
10537;SDS011;5317;49.048;8.468;2023-10-08T10:21:27;4.57;;;3.37;;
10537;SDS011;5317;49.048;8.468;2023-10-08T10:24:00;8.33;;;3.23;;
10537;SDS011;5317;49.048;8.468;2023-10-08T10:26:28;6.00;;;3.60;;
10537;SDS011;5317;49.048;8.468;2023-10-08T10:31:50;4.87;;;3.50;;
10537;SDS011;5317;49.048;8.468;2023-10-08T10:34:19;5.03;;;3.70;;
10537;SDS011;5317;49.048;8.468;2023-10-08T10:36:48;6.47;;;4.20;;
10537;SDS011;5317;49.048;8.468;2023-10-08T10:39:22;6.73;;;3.70;;
10537;SDS011;5317;49.048;8.468;2023-10-08T10:41:55;4.57;;;3.30;;
10537;SDS011;5317;49.048;8.468;2023-10-08T10:44:26;4.37;;;3.47;;
10537;SDS011;5317;49.048;8.468;2023-10-08T10:46:54;7.17;;;4.17;;
10537;SDS011;5317;49.048;8.468;2023-10-08T10:49:36;6.03;;;3.73;;
10537;SDS011;5317;49.048;8.468;2023-10-08T10:52:13;5.77;;;3.70;;
10537;SDS011;5317;49.048;8.468;2023-10-08T10:54:44;5.83;;;3.77;;
10537;SDS011;5317;49.048;8.468;2023-10-08T10:57:24;6.60;;;3.90;;
10537;SDS011;5317;49.048;8.468;2023-10-08T11:00:00;6.87;;;3.83;;
10537;SDS011;5317;49.048;8.468;2023-10-08T11:02:55;5.30;;;3.40;;
10537;SDS011;5317;49.048;8.468;2023-10-08T11:05:25;6.07;;;4.23;;
10537;SDS011;5317;49.048;8.468;2023-10-08T11:07:53;5.73;;;4.00;;
10537;SDS011;5317;49.048;8.468;2023-10-08T11:10:27;8.50;;;4.53;;
10537;SDS011;5317;49.048;8.468;2023-10-08T11:12:55;6.33;;;4.63;;
10537;SDS011;5317;49.048;8.468;2023-10-08T11:15:26;4.67;;;3.47;;
10537;SDS011;5317;49.048;8.468;2023-10-08T11:18:06;4.97;;;3.60;;
10537;SDS011;5317;49.048;8.468;2023-10-08T11:20:34;7.33;;;3.67;;
10537;SDS011;5317;49.048;8.468;2023-10-08T11:23:05;7.87;;;3.83;;
10537;SDS011;5317;49.048;8.468;2023-10-08T11:25:55;4.77;;;3.70;;
10537;SDS011;5317;49.048;8.468;2023-10-08T11:28:27;5.77;;;3.40;;
10537;SDS011;5317;49.048;8.468;2023-10-08T11:30:54;5.80;;;3.80;;
10537;SDS011;5317;49.048;8.468;2023-10-08T11:33:24;4.90;;;3.83;;
10537;SDS011;5317;49.048;8.468;2023-10-08T11:35:56;5.53;;;3.90;;
10537;SDS011;5317;49.048;8.468;2023-10-08T11:38:25;6.13;;;3.90;;
10537;SDS011;5317;49.048;8.468;2023-10-08T11:40:52;5.43;;;3.67;;
10537;SDS011;5317;49.048;8.468;2023-10-08T11:43:23;5.30;;;3.53;;
10537;SDS011;5317;49.048;8.468;2023-10-08T11:45:50;6.00;;;3.83;;
10537;SDS011;5317;49.048;8.468;2023-10-08T11:48:17;6.93;;;3.63;;
10537;SDS011;5317;49.048;8.468;2023-10-08T11:50:53;7.03;;;3.83;;
10537;SDS011;5317;49.048;8.468;2023-10-08T11:53:22;5.80;;;3.97;;
10537;SDS011;5317;49.048;8.468;2023-10-08T11:55:49;5.67;;;4.47;;
10537;SDS011;5317;49.048;8.468;2023-10-08T11:58:22;5.43;;;4.07;;
10537;SDS011;5317;49.048;8.468;2023-10-08T12:01:02;4.90;;;3.63;;
10537;SDS011;5317;49.048;8.468;2023-10-08T12:03:29;5.23;;;3.87;;
10537;SDS011;5317;49.048;8.468;2023-10-08T12:05:57;5.87;;;4.43;;
10537;SDS011;5317;49.048;8.468;2023-10-08T12:08:25;6.03;;;3.70;;
10537;SDS011;5317;49.048;8.468;2023-10-08T12:10:54;5.90;;;3.67;;
10537;SDS011;5317;49.048;8.468;2023-10-08T12:13:21;7.17;;;4.37;;
10537;SDS011;5317;49.048;8.468;2023-10-08T12:15:50;5.77;;;3.80;;
10537;SDS011;5317;49.048;8.468;2023-10-08T12:18:17;6.17;;;4.27;;
10537;SDS011;5317;49.048;8.468;2023-10-08T12:20:50;5.20;;;3.90;;
10537;SDS011;5317;49.048;8.468;2023-10-08T12:23:19;5.73;;;4.20;;
10537;SDS011;5317;49.048;8.468;2023-10-08T12:25:50;5.90;;;3.70;;
10537;SDS011;5317;49.048;8.468;2023-10-08T12:28:17;7.03;;;4.40;;
10537;SDS011;5317;49.048;8.468;2023-10-08T12:30:46;5.83;;;4.03;;
10537;SDS011;5317;49.048;8.468;2023-10-08T12:33:14;7.40;;;3.83;;
10537;SDS011;5317;49.048;8.468;2023-10-08T12:35:42;5.90;;;4.40;;
10537;SDS011;5317;49.048;8.468;2023-10-08T12:38:09;5.43;;;3.87;;
10537;SDS011;5317;49.048;8.468;2023-10-08T12:40:37;5.53;;;3.97;;
10537;SDS011;5317;49.048;8.468;2023-10-08T12:43:12;8.77;;;4.60;;
10537;SDS011;5317;49.048;8.468;2023-10-08T12:45:41;6.57;;;4.27;;
10537;SDS011;5317;49.048;8.468;2023-10-08T12:48:11;7.77;;;4.00;;
10537;SDS011;5317;49.048;8.468;2023-10-08T12:50:39;7.10;;;3.93;;
10537;SDS011;5317;49.048;8.468;2023-10-08T12:53:08;5.60;;;4.07;;
10537;SDS011;5317;49.048;8.468;2023-10-08T12:55:36;5.70;;;4.13;;
10537;SDS011;5317;49.048;8.468;2023-10-08T12:58:05;6.83;;;4.20;;
10537;SDS011;5317;49.048;8.468;2023-10-08T13:00:35;6.37;;;4.30;;
10537;SDS011;5317;49.048;8.468;2023-10-08T13:03:04;5.83;;;3.77;;
10537;SDS011;5317;49.048;8.468;2023-10-08T13:05:41;5.10;;;3.83;;
10537;SDS011;5317;49.048;8.468;2023-10-08T13:08:09;5.80;;;4.43;;
10537;SDS011;5317;49.048;8.468;2023-10-08T13:10:38;7.07;;;4.07;;
10537;SDS011;5317;49.048;8.468;2023-10-08T13:13:09;8.07;;;4.40;;
10537;SDS011;5317;49.048;8.468;2023-10-08T13:15:37;6.30;;;3.90;;
10537;SDS011;5317;49.048;8.468;2023-10-08T13:18:06;6.13;;;4.33;;
10537;SDS011;5317;49.048;8.468;2023-10-08T13:20:33;6.40;;;3.70;;
10537;SDS011;5317;49.048;8.468;2023-10-08T13:23:01;7.53;;;4.20;;
10537;SDS011;5317;49.048;8.468;2023-10-08T13:25:29;6.57;;;3.90;;
10537;SDS011;5317;49.048;8.468;2023-10-08T13:27:58;8.93;;;4.70;;
10537;SDS011;5317;49.048;8.468;2023-10-08T13:30:25;6.13;;;3.80;;
10537;SDS011;5317;49.048;8.468;2023-10-08T13:32:52;5.07;;;3.77;;
10537;SDS011;5317;49.048;8.468;2023-10-08T13:35:19;6.13;;;4.20;;
10537;SDS011;5317;49.048;8.468;2023-10-08T13:37:46;6.03;;;4.23;;
10537;SDS011;5317;49.048;8.468;2023-10-08T13:40:15;6.80;;;4.60;;
10537;SDS011;5317;49.048;8.468;2023-10-08T13:42:42;5.60;;;4.20;;
10537;SDS011;5317;49.048;8.468;2023-10-08T13:45:09;6.53;;;3.90;;
10537;SDS011;5317;49.048;8.468;2023-10-08T13:47:51;5.87;;;4.00;;
10537;SDS011;5317;49.048;8.468;2023-10-08T13:50:18;8.80;;;4.40;;
10537;SDS011;5317;49.048;8.468;2023-10-08T13:52:46;8.07;;;4.10;;
10537;SDS011;5317;49.048;8.468;2023-10-08T13:55:15;7.33;;;4.13;;
10537;SDS011;5317;49.048;8.468;2023-10-08T13:57:44;6.63;;;4.10;;
10537;SDS011;5317;49.048;8.468;2023-10-08T14:00:13;6.37;;;4.20;;
10537;SDS011;5317;49.048;8.468;2023-10-08T14:02:41;8.23;;;4.57;;
10537;SDS011;5317;49.048;8.468;2023-10-08T14:05:09;8.73;;;4.90;;
10537;SDS011;5317;49.048;8.468;2023-10-08T14:07:40;5.20;;;4.37;;
10537;SDS011;5317;49.048;8.468;2023-10-08T14:10:10;8.37;;;4.20;;
10537;SDS011;5317;49.048;8.468;2023-10-08T14:12:45;6.03;;;4.30;;
10537;SDS011;5317;49.048;8.468;2023-10-08T14:15:14;6.50;;;4.43;;
10537;SDS011;5317;49.048;8.468;2023-10-08T14:17:43;5.67;;;3.90;;
10537;SDS011;5317;49.048;8.468;2023-10-08T14:20:13;6.45;;;4.28;;
10537;SDS011;5317;49.048;8.468;2023-10-08T14:22:46;4.38;;;3.83;;
10537;SDS011;5317;49.048;8.468;2023-10-08T14:25:17;6.47;;;4.13;;
10537;SDS011;5317;49.048;8.468;2023-10-08T14:27:51;6.43;;;4.37;;
10537;SDS011;5317;49.048;8.468;2023-10-08T14:30:18;6.77;;;4.57;;
10537;SDS011;5317;49.048;8.468;2023-10-08T14:32:49;6.37;;;4.50;;
10537;SDS011;5317;49.048;8.468;2023-10-08T14:35:15;7.60;;;4.23;;
10537;SDS011;5317;49.048;8.468;2023-10-08T14:38:00;5.47;;;4.40;;
10537;SDS011;5317;49.048;8.468;2023-10-08T14:40:44;6.07;;;4.13;;
10537;SDS011;5317;49.048;8.468;2023-10-08T14:43:31;7.07;;;4.27;;
10537;SDS011;5317;49.048;8.468;2023-10-08T14:45:59;6.73;;;4.07;;
10537;SDS011;5317;49.048;8.468;2023-10-08T14:48:29;7.40;;;4.57;;
10537;SDS011;5317;49.048;8.468;2023-10-08T14:51:00;6.93;;;4.20;;
10537;SDS011;5317;49.048;8.468;2023-10-08T14:53:27;8.37;;;4.33;;
10537;SDS011;5317;49.048;8.468;2023-10-08T14:55:55;7.60;;;4.00;;
10537;SDS011;5317;49.048;8.468;2023-10-08T14:58:22;9.70;;;4.60;;
10537;SDS011;5317;49.048;8.468;2023-10-08T15:00:52;6.60;;;4.17;;
10537;SDS011;5317;49.048;8.468;2023-10-08T15:03:21;6.63;;;4.40;;
10537;SDS011;5317;49.048;8.468;2023-10-08T15:05:49;6.77;;;4.53;;
10537;SDS011;5317;49.048;8.468;2023-10-08T15:08:16;6.60;;;4.30;;
10537;SDS011;5317;49.048;8.468;2023-10-08T15:10:43;7.17;;;4.40;;
10537;SDS011;5317;49.048;8.468;2023-10-08T15:13:12;6.67;;;4.27;;
10537;SDS011;5317;49.048;8.468;2023-10-08T15:15:39;4.80;;;3.87;;
10537;SDS011;5317;49.048;8.468;2023-10-08T15:18:08;6.60;;;4.80;;
10537;SDS011;5317;49.048;8.468;2023-10-08T15:20:36;7.27;;;4.30;;
10537;SDS011;5317;49.048;8.468;2023-10-08T15:23:06;7.07;;;4.30;;
10537;SDS011;5317;49.048;8.468;2023-10-08T15:25:37;5.90;;;3.87;;
10537;SDS011;5317;49.048;8.468;2023-10-08T15:28:05;5.57;;;4.40;;